sensor_id;sensor_type;location;lat;lon;timestamp;P1;durP1;ratioP1;P2;durP2;ratioP2
16075;SDS011;8142;48.242;11.644;2022-11-20T00:00:49;3.30;;;2.73;;
16075;SDS011;8142;48.242;11.644;2022-11-20T00:03:15;3.60;;;2.87;;
16075;SDS011;8142;48.242;11.644;2022-11-20T00:05:42;3.60;;;2.60;;
16075;SDS011;8142;48.242;11.644;2022-11-20T00:08:09;2.93;;;2.50;;
16075;SDS011;8142;48.242;11.644;2022-11-20T00:10:38;2.93;;;2.63;;
16075;SDS011;8142;48.242;11.644;2022-11-20T00:13:05;3.00;;;2.70;;
16075;SDS011;8142;48.242;11.644;2022-11-20T00:15:32;3.03;;;2.63;;
16075;SDS011;8142;48.242;11.644;2022-11-20T00:17:59;3.27;;;2.80;;
16075;SDS011;8142;48.242;11.644;2022-11-20T00:20:24;3.67;;;2.53;;
16075;SDS011;8142;48.242;11.644;2022-11-20T00:22:50;5.03;;;2.60;;
16075;SDS011;8142;48.242;11.644;2022-11-20T00:25:16;4.23;;;2.87;;
16075;SDS011;8142;48.242;11.644;2022-11-20T00:27:42;2.93;;;2.47;;
16075;SDS011;8142;48.242;11.644;2022-11-20T00:30:08;3.70;;;2.50;;
16075;SDS011;8142;48.242;11.644;2022-11-20T00:32:34;4.10;;;2.90;;
16075;SDS011;8142;48.242;11.644;2022-11-20T00:35:00;4.57;;;3.10;;
16075;SDS011;8142;48.242;11.644;2022-11-20T00:37:26;3.43;;;2.63;;
16075;SDS011;8142;48.242;11.644;2022-11-20T00:39:52;4.67;;;2.70;;
16075;SDS011;8142;48.242;11.644;2022-11-20T00:42:18;3.23;;;2.53;;
16075;SDS011;8142;48.242;11.644;2022-11-20T00:44:44;6.40;;;2.90;;
16075;SDS011;8142;48.242;11.644;2022-11-20T00:47:10;3.97;;;2.60;;
16075;SDS011;8142;48.242;11.644;2022-11-20T00:49:35;3.47;;;2.67;;
16075;SDS011;8142;48.242;11.644;2022-11-20T00:52:01;3.30;;;3.00;;
16075;SDS011;8142;48.242;11.644;2022-11-20T00:54:27;3.00;;;2.47;;
16075;SDS011;8142;48.242;11.644;2022-11-20T00:56:53;3.90;;;3.10;;
16075;SDS011;8142;48.242;11.644;2022-11-20T00:59:19;3.10;;;2.60;;
16075;SDS011;8142;48.242;11.644;2022-11-20T01:01:45;3.70;;;2.90;;
16075;SDS011;8142;48.242;11.644;2022-11-20T01:04:11;3.73;;;2.70;;
16075;SDS011;8142;48.242;11.644;2022-11-20T01:06:37;3.50;;;2.87;;
16075;SDS011;8142;48.242;11.644;2022-11-20T01:09:05;3.40;;;2.80;;
16075;SDS011;8142;48.242;11.644;2022-11-20T01:11:33;3.17;;;2.87;;
16075;SDS011;8142;48.242;11.644;2022-11-20T01:14:02;3.90;;;2.90;;
16075;SDS011;8142;48.242;11.644;2022-11-20T01:16:35;3.13;;;2.80;;
16075;SDS011;8142;48.242;11.644;2022-11-20T01:19:06;3.17;;;2.83;;
16075;SDS011;8142;48.242;11.644;2022-11-20T01:21:35;4.13;;;2.90;;
16075;SDS011;8142;48.242;11.644;2022-11-20T01:24:03;4.77;;;3.00;;
16075;SDS011;8142;48.242;11.644;2022-11-20T01:26:33;3.43;;;2.83;;
16075;SDS011;8142;48.242;11.644;2022-11-20T01:29:00;3.00;;;2.70;;
16075;SDS011;8142;48.242;11.644;2022-11-20T01:31:28;3.70;;;2.93;;
16075;SDS011;8142;48.242;11.644;2022-11-20T01:33:58;4.10;;;2.77;;
16075;SDS011;8142;48.242;11.644;2022-11-20T01:36:27;6.60;;;3.10;;
16075;SDS011;8142;48.242;11.644;2022-11-20T01:38:55;3.30;;;3.00;;
16075;SDS011;8142;48.242;11.644;2022-11-20T01:41:23;3.70;;;2.93;;
16075;SDS011;8142;48.242;11.644;2022-11-20T01:44:10;5.07;;;3.20;;
16075;SDS011;8142;48.242;11.644;2022-11-20T01:46:41;4.27;;;3.10;;
16075;SDS011;8142;48.242;11.644;2022-11-20T01:49:21;3.30;;;2.90;;
16075;SDS011;8142;48.242;11.644;2022-11-20T01:51:52;4.40;;;3.00;;
16075;SDS011;8142;48.242;11.644;2022-11-20T01:54:22;5.17;;;3.23;;
16075;SDS011;8142;48.242;11.644;2022-11-20T01:56:59;3.53;;;2.73;;
16075;SDS011;8142;48.242;11.644;2022-11-20T01:59:26;3.40;;;2.70;;
16075;SDS011;8142;48.242;11.644;2022-11-20T02:01:54;3.57;;;2.90;;
16075;SDS011;8142;48.242;11.644;2022-11-20T02:04:20;3.43;;;3.00;;
16075;SDS011;8142;48.242;11.644;2022-11-20T02:06:57;4.33;;;3.07;;
16075;SDS011;8142;48.242;11.644;2022-11-20T02:09:26;3.57;;;3.00;;
16075;SDS011;8142;48.242;11.644;2022-11-20T02:11:52;3.47;;;2.73;;
16075;SDS011;8142;48.242;11.644;2022-11-20T02:14:19;5.63;;;3.00;;
16075;SDS011;8142;48.242;11.644;2022-11-20T02:16:47;5.00;;;3.10;;
16075;SDS011;8142;48.242;11.644;2022-11-20T02:21:47;4.00;;;2.80;;
16075;SDS011;8142;48.242;11.644;2022-11-20T02:24:43;4.07;;;3.00;;
16075;SDS011;8142;48.242;11.644;2022-11-20T02:27:12;4.23;;;2.87;;
16075;SDS011;8142;48.242;11.644;2022-11-20T02:32:18;5.20;;;3.00;;
16075;SDS011;8142;48.242;11.644;2022-11-20T02:34:49;3.70;;;2.87;;
16075;SDS011;8142;48.242;11.644;2022-11-20T02:37:15;3.33;;;2.87;;
16075;SDS011;8142;48.242;11.644;2022-11-20T02:39:41;4.30;;;2.97;;
16075;SDS011;8142;48.242;11.644;2022-11-20T02:42:11;3.77;;;2.70;;
16075;SDS011;8142;48.242;11.644;2022-11-20T02:44:37;4.67;;;3.53;;
16075;SDS011;8142;48.242;11.644;2022-11-20T02:47:03;3.57;;;3.10;;
16075;SDS011;8142;48.242;11.644;2022-11-20T02:49:28;4.10;;;3.40;;
16075;SDS011;8142;48.242;11.644;2022-11-20T02:51:54;3.03;;;2.83;;
16075;SDS011;8142;48.242;11.644;2022-11-20T02:54:20;4.57;;;2.90;;
16075;SDS011;8142;48.242;11.644;2022-11-20T02:56:46;3.77;;;3.03;;
16075;SDS011;8142;48.242;11.644;2022-11-20T02:59:12;4.20;;;3.10;;
16075;SDS011;8142;48.242;11.644;2022-11-20T03:01:38;4.20;;;2.93;;
16075;SDS011;8142;48.242;11.644;2022-11-20T03:04:04;3.23;;;2.93;;
16075;SDS011;8142;48.242;11.644;2022-11-20T03:06:30;6.47;;;3.07;;
16075;SDS011;8142;48.242;11.644;2022-11-20T03:08:56;5.13;;;3.17;;
16075;SDS011;8142;48.242;11.644;2022-11-20T03:11:21;3.90;;;3.00;;
16075;SDS011;8142;48.242;11.644;2022-11-20T03:13:47;3.40;;;3.10;;
16075;SDS011;8142;48.242;11.644;2022-11-20T03:16:14;4.63;;;3.40;;
16075;SDS011;8142;48.242;11.644;2022-11-20T03:18:42;4.57;;;2.90;;
16075;SDS011;8142;48.242;11.644;2022-11-20T03:21:09;3.23;;;2.93;;
16075;SDS011;8142;48.242;11.644;2022-11-20T03:23:36;3.43;;;3.10;;
16075;SDS011;8142;48.242;11.644;2022-11-20T03:26:16;4.27;;;2.90;;
16075;SDS011;8142;48.242;11.644;2022-11-20T03:28:51;3.77;;;3.10;;
16075;SDS011;8142;48.242;11.644;2022-11-20T03:31:19;5.30;;;3.20;;
16075;SDS011;8142;48.242;11.644;2022-11-20T03:33:46;4.33;;;3.20;;
16075;SDS011;8142;48.242;11.644;2022-11-20T03:36:13;4.33;;;3.10;;
16075;SDS011;8142;48.242;11.644;2022-11-20T03:38:40;3.20;;;2.90;;
16075;SDS011;8142;48.242;11.644;2022-11-20T03:41:08;3.23;;;2.90;;
16075;SDS011;8142;48.242;11.644;2022-11-20T03:43:38;4.00;;;3.03;;
16075;SDS011;8142;48.242;11.644;2022-11-20T03:46:05;5.20;;;3.03;;
16075;SDS011;8142;48.242;11.644;2022-11-20T03:48:31;3.53;;;2.67;;
16075;SDS011;8142;48.242;11.644;2022-11-20T03:53:55;5.03;;;3.07;;
16075;SDS011;8142;48.242;11.644;2022-11-20T03:56:23;3.87;;;3.10;;
16075;SDS011;8142;48.242;11.644;2022-11-20T03:58:50;3.40;;;2.70;;
16075;SDS011;8142;48.242;11.644;2022-11-20T04:01:21;3.23;;;2.57;;
16075;SDS011;8142;48.242;11.644;2022-11-20T04:03:48;3.23;;;2.57;;
16075;SDS011;8142;48.242;11.644;2022-11-20T04:06:15;3.43;;;2.60;;
16075;SDS011;8142;48.242;11.644;2022-11-20T04:08:44;2.90;;;2.50;;
16075;SDS011;8142;48.242;11.644;2022-11-20T04:11:17;2.70;;;2.43;;
16075;SDS011;8142;48.242;11.644;2022-11-20T04:13:48;3.27;;;2.50;;
16075;SDS011;8142;48.242;11.644;2022-11-20T04:16:15;2.60;;;2.37;;
16075;SDS011;8142;48.242;11.644;2022-11-20T04:18:42;4.70;;;3.03;;
16075;SDS011;8142;48.242;11.644;2022-11-20T04:21:09;2.53;;;2.20;;
16075;SDS011;8142;48.242;11.644;2022-11-20T04:23:35;3.03;;;2.73;;
16075;SDS011;8142;48.242;11.644;2022-11-20T04:26:05;3.93;;;2.70;;
16075;SDS011;8142;48.242;11.644;2022-11-20T04:28:32;2.80;;;2.50;;
16075;SDS011;8142;48.242;11.644;2022-11-20T04:31:02;4.00;;;2.70;;
16075;SDS011;8142;48.242;11.644;2022-11-20T04:33:28;3.30;;;2.77;;
16075;SDS011;8142;48.242;11.644;2022-11-20T04:35:54;2.80;;;2.60;;
16075;SDS011;8142;48.242;11.644;2022-11-20T04:38:20;3.07;;;2.70;;
16075;SDS011;8142;48.242;11.644;2022-11-20T04:40:46;2.73;;;2.50;;
16075;SDS011;8142;48.242;11.644;2022-11-20T04:43:12;4.17;;;2.83;;
16075;SDS011;8142;48.242;11.644;2022-11-20T04:45:37;2.73;;;2.50;;
16075;SDS011;8142;48.242;11.644;2022-11-20T04:48:03;2.53;;;2.33;;
16075;SDS011;8142;48.242;11.644;2022-11-20T04:50:29;3.00;;;2.70;;
16075;SDS011;8142;48.242;11.644;2022-11-20T04:52:55;3.43;;;2.40;;
16075;SDS011;8142;48.242;11.644;2022-11-20T04:55:21;2.97;;;2.67;;
16075;SDS011;8142;48.242;11.644;2022-11-20T04:57:49;4.70;;;2.83;;
16075;SDS011;8142;48.242;11.644;2022-11-20T05:00:15;3.67;;;2.60;;
16075;SDS011;8142;48.242;11.644;2022-11-20T05:02:41;4.03;;;2.30;;
16075;SDS011;8142;48.242;11.644;2022-11-20T05:05:07;2.60;;;2.40;;
16075;SDS011;8142;48.242;11.644;2022-11-20T05:07:33;2.93;;;2.53;;
16075;SDS011;8142;48.242;11.644;2022-11-20T05:09:59;3.10;;;2.40;;
16075;SDS011;8142;48.242;11.644;2022-11-20T05:12:25;4.03;;;2.60;;
16075;SDS011;8142;48.242;11.644;2022-11-20T05:14:51;3.23;;;2.77;;
16075;SDS011;8142;48.242;11.644;2022-11-20T05:17:17;2.70;;;2.50;;
16075;SDS011;8142;48.242;11.644;2022-11-20T05:19:42;2.77;;;2.50;;
16075;SDS011;8142;48.242;11.644;2022-11-20T05:22:08;4.10;;;2.97;;
16075;SDS011;8142;48.242;11.644;2022-11-20T05:24:34;4.03;;;2.63;;
16075;SDS011;8142;48.242;11.644;2022-11-20T05:27:00;5.27;;;2.77;;
16075;SDS011;8142;48.242;11.644;2022-11-20T05:29:26;4.23;;;2.50;;
16075;SDS011;8142;48.242;11.644;2022-11-20T05:31:52;4.33;;;2.83;;
16075;SDS011;8142;48.242;11.644;2022-11-20T05:34:18;5.17;;;2.80;;
16075;SDS011;8142;48.242;11.644;2022-11-20T05:36:43;3.87;;;2.60;;
16075;SDS011;8142;48.242;11.644;2022-11-20T05:39:09;3.70;;;2.80;;
16075;SDS011;8142;48.242;11.644;2022-11-20T05:41:35;2.97;;;2.67;;
16075;SDS011;8142;48.242;11.644;2022-11-20T05:44:01;3.20;;;2.70;;
16075;SDS011;8142;48.242;11.644;2022-11-20T05:46:27;4.07;;;2.60;;
16075;SDS011;8142;48.242;11.644;2022-11-20T05:48:53;3.00;;;2.70;;
16075;SDS011;8142;48.242;11.644;2022-11-20T05:51:19;3.40;;;2.50;;
16075;SDS011;8142;48.242;11.644;2022-11-20T05:53:45;4.00;;;2.73;;
16075;SDS011;8142;48.242;11.644;2022-11-20T05:56:13;3.77;;;2.90;;
16075;SDS011;8142;48.242;11.644;2022-11-20T05:58:41;4.50;;;2.90;;
16075;SDS011;8142;48.242;11.644;2022-11-20T06:01:07;3.07;;;2.60;;
16075;SDS011;8142;48.242;11.644;2022-11-20T06:03:38;4.00;;;2.80;;
16075;SDS011;8142;48.242;11.644;2022-11-20T06:06:04;3.10;;;2.70;;
16075;SDS011;8142;48.242;11.644;2022-11-20T06:08:31;3.53;;;2.77;;
16075;SDS011;8142;48.242;11.644;2022-11-20T06:10:58;3.30;;;2.57;;
16075;SDS011;8142;48.242;11.644;2022-11-20T06:13:27;3.63;;;2.80;;
16075;SDS011;8142;48.242;11.644;2022-11-20T06:15:53;3.10;;;2.70;;
16075;SDS011;8142;48.242;11.644;2022-11-20T06:18:19;2.60;;;2.40;;
16075;SDS011;8142;48.242;11.644;2022-11-20T06:20:45;2.80;;;2.43;;
16075;SDS011;8142;48.242;11.644;2022-11-20T06:23:12;4.53;;;2.60;;
16075;SDS011;8142;48.242;11.644;2022-11-20T06:25:41;4.07;;;2.70;;
16075;SDS011;8142;48.242;11.644;2022-11-20T06:28:08;2.70;;;2.50;;
16075;SDS011;8142;48.242;11.644;2022-11-20T06:30:35;3.80;;;2.67;;
16075;SDS011;8142;48.242;11.644;2022-11-20T06:33:01;3.00;;;2.73;;
16075;SDS011;8142;48.242;11.644;2022-11-20T06:35:27;3.33;;;2.50;;
16075;SDS011;8142;48.242;11.644;2022-11-20T06:37:53;3.30;;;2.67;;
16075;SDS011;8142;48.242;11.644;2022-11-20T06:40:19;3.70;;;2.57;;
16075;SDS011;8142;48.242;11.644;2022-11-20T06:42:44;2.70;;;2.50;;
16075;SDS011;8142;48.242;11.644;2022-11-20T06:45:10;3.60;;;2.60;;
16075;SDS011;8142;48.242;11.644;2022-11-20T06:47:36;3.30;;;2.50;;
16075;SDS011;8142;48.242;11.644;2022-11-20T06:50:02;2.77;;;2.50;;
16075;SDS011;8142;48.242;11.644;2022-11-20T06:52:28;5.63;;;2.57;;
16075;SDS011;8142;48.242;11.644;2022-11-20T06:54:54;2.70;;;2.50;;
16075;SDS011;8142;48.242;11.644;2022-11-20T06:57:20;2.57;;;2.30;;
16075;SDS011;8142;48.242;11.644;2022-11-20T06:59:46;2.40;;;2.20;;
16075;SDS011;8142;48.242;11.644;2022-11-20T07:02:11;2.50;;;2.30;;
16075;SDS011;8142;48.242;11.644;2022-11-20T07:04:38;2.40;;;2.20;;
16075;SDS011;8142;48.242;11.644;2022-11-20T07:07:04;2.97;;;2.40;;
16075;SDS011;8142;48.242;11.644;2022-11-20T07:09:31;2.50;;;2.30;;
16075;SDS011;8142;48.242;11.644;2022-11-20T07:11:58;3.80;;;2.40;;
16075;SDS011;8142;48.242;11.644;2022-11-20T07:14:24;2.70;;;2.10;;
16075;SDS011;8142;48.242;11.644;2022-11-20T07:16:50;2.90;;;2.30;;
16075;SDS011;8142;48.242;11.644;2022-11-20T07:19:16;5.13;;;2.40;;
16075;SDS011;8142;48.242;11.644;2022-11-20T07:21:42;2.30;;;2.07;;
16075;SDS011;8142;48.242;11.644;2022-11-20T07:24:08;2.40;;;2.20;;
16075;SDS011;8142;48.242;11.644;2022-11-20T07:26:33;2.40;;;2.20;;
16075;SDS011;8142;48.242;11.644;2022-11-20T07:29:00;2.87;;;2.17;;
16075;SDS011;8142;48.242;11.644;2022-11-20T07:31:26;2.50;;;2.30;;
16075;SDS011;8142;48.242;11.644;2022-11-20T07:33:51;2.20;;;2.00;;
16075;SDS011;8142;48.242;11.644;2022-11-20T07:36:17;2.97;;;2.23;;
16075;SDS011;8142;48.242;11.644;2022-11-20T07:38:43;3.23;;;2.13;;
16075;SDS011;8142;48.242;11.644;2022-11-20T07:41:09;2.10;;;1.90;;
16075;SDS011;8142;48.242;11.644;2022-11-20T07:43:35;2.87;;;1.90;;
16075;SDS011;8142;48.242;11.644;2022-11-20T07:46:00;2.30;;;2.10;;
16075;SDS011;8142;48.242;11.644;2022-11-20T07:48:26;2.57;;;2.10;;
16075;SDS011;8142;48.242;11.644;2022-11-20T07:50:56;2.73;;;2.00;;
16075;SDS011;8142;48.242;11.644;2022-11-20T07:53:22;4.30;;;2.40;;
16075;SDS011;8142;48.242;11.644;2022-11-20T07:55:48;4.43;;;2.60;;
16075;SDS011;8142;48.242;11.644;2022-11-20T07:58:15;3.40;;;3.10;;
16075;SDS011;8142;48.242;11.644;2022-11-20T08:00:41;3.33;;;2.80;;
16075;SDS011;8142;48.242;11.644;2022-11-20T08:03:07;2.27;;;2.07;;
16075;SDS011;8142;48.242;11.644;2022-11-20T08:05:33;2.30;;;2.10;;
16075;SDS011;8142;48.242;11.644;2022-11-20T08:07:59;4.00;;;2.40;;
16075;SDS011;8142;48.242;11.644;2022-11-20T08:10:25;2.53;;;2.30;;
16075;SDS011;8142;48.242;11.644;2022-11-20T08:12:52;2.30;;;2.10;;
16075;SDS011;8142;48.242;11.644;2022-11-20T08:15:37;2.30;;;1.93;;
16075;SDS011;8142;48.242;11.644;2022-11-20T08:18:08;2.73;;;2.00;;
16075;SDS011;8142;48.242;11.644;2022-11-20T08:20:38;2.57;;;2.33;;
16075;SDS011;8142;48.242;11.644;2022-11-20T08:23:05;2.93;;;2.60;;
16075;SDS011;8142;48.242;11.644;2022-11-20T08:25:33;2.40;;;2.20;;
16075;SDS011;8142;48.242;11.644;2022-11-20T08:28:00;2.40;;;2.20;;
16075;SDS011;8142;48.242;11.644;2022-11-20T08:30:27;2.57;;;2.37;;
16075;SDS011;8142;48.242;11.644;2022-11-20T08:32:54;3.20;;;2.40;;
16075;SDS011;8142;48.242;11.644;2022-11-20T08:35:26;2.90;;;2.50;;
16075;SDS011;8142;48.242;11.644;2022-11-20T08:37:51;3.17;;;2.50;;
16075;SDS011;8142;48.242;11.644;2022-11-20T08:40:17;2.67;;;2.47;;
16075;SDS011;8142;48.242;11.644;2022-11-20T08:42:47;3.10;;;2.57;;
16075;SDS011;8142;48.242;11.644;2022-11-20T08:45:13;2.87;;;2.47;;
16075;SDS011;8142;48.242;11.644;2022-11-20T08:47:39;3.73;;;2.60;;
16075;SDS011;8142;48.242;11.644;2022-11-20T08:50:06;3.07;;;2.47;;
16075;SDS011;8142;48.242;11.644;2022-11-20T08:52:33;3.90;;;2.70;;
16075;SDS011;8142;48.242;11.644;2022-11-20T08:54:58;2.60;;;2.40;;
16075;SDS011;8142;48.242;11.644;2022-11-20T08:57:24;3.50;;;2.50;;
16075;SDS011;8142;48.242;11.644;2022-11-20T08:59:50;3.33;;;2.63;;
16075;SDS011;8142;48.242;11.644;2022-11-20T09:02:16;4.30;;;2.47;;
16075;SDS011;8142;48.242;11.644;2022-11-20T09:04:42;3.10;;;2.43;;
16075;SDS011;8142;48.242;11.644;2022-11-20T09:07:08;2.73;;;2.37;;
16075;SDS011;8142;48.242;11.644;2022-11-20T09:09:33;3.07;;;2.50;;
16075;SDS011;8142;48.242;11.644;2022-11-20T09:11:59;2.80;;;2.50;;
16075;SDS011;8142;48.242;11.644;2022-11-20T09:14:25;2.93;;;2.50;;
16075;SDS011;8142;48.242;11.644;2022-11-20T09:16:57;3.00;;;2.20;;
16075;SDS011;8142;48.242;11.644;2022-11-20T09:19:25;3.77;;;2.60;;
16075;SDS011;8142;48.242;11.644;2022-11-20T09:21:51;3.87;;;2.40;;
16075;SDS011;8142;48.242;11.644;2022-11-20T09:24:17;3.20;;;2.40;;
16075;SDS011;8142;48.242;11.644;2022-11-20T09:26:44;4.27;;;2.63;;
16075;SDS011;8142;48.242;11.644;2022-11-20T09:29:10;3.07;;;2.47;;
16075;SDS011;8142;48.242;11.644;2022-11-20T09:31:36;2.50;;;2.30;;
16075;SDS011;8142;48.242;11.644;2022-11-20T09:34:02;3.10;;;2.43;;
16075;SDS011;8142;48.242;11.644;2022-11-20T09:36:28;2.83;;;2.50;;
16075;SDS011;8142;48.242;11.644;2022-11-20T09:38:54;3.43;;;2.50;;
16075;SDS011;8142;48.242;11.644;2022-11-20T09:41:32;3.53;;;2.20;;
16075;SDS011;8142;48.242;11.644;2022-11-20T09:44:28;2.97;;;2.37;;
16075;SDS011;8142;48.242;11.644;2022-11-20T09:54:58;2.30;;;2.10;;
16075;SDS011;8142;48.242;11.644;2022-11-20T09:57:38;3.13;;;2.10;;
16075;SDS011;8142;48.242;11.644;2022-11-20T10:00:09;2.60;;;2.40;;
16075;SDS011;8142;48.242;11.644;2022-11-20T10:15:53;3.10;;;2.30;;
16075;SDS011;8142;48.242;11.644;2022-11-20T10:19:11;2.83;;;2.10;;
16075;SDS011;8142;48.242;11.644;2022-11-20T10:22:13;2.83;;;2.30;;
16075;SDS011;8142;48.242;11.644;2022-11-20T10:25:30;4.13;;;2.47;;
16075;SDS011;8142;48.242;11.644;2022-11-20T10:30:18;2.77;;;2.17;;
16075;SDS011;8142;48.242;11.644;2022-11-20T10:32:52;2.80;;;2.27;;
16075;SDS011;8142;48.242;11.644;2022-11-20T10:35:27;2.13;;;1.90;;
16075;SDS011;8142;48.242;11.644;2022-11-20T10:38:19;2.03;;;1.90;;
16075;SDS011;8142;48.242;11.644;2022-11-20T10:40:51;2.13;;;1.90;;
16075;SDS011;8142;48.242;11.644;2022-11-20T10:43:44;1.93;;;1.80;;
16075;SDS011;8142;48.242;11.644;2022-11-20T10:46:33;2.90;;;1.90;;
16075;SDS011;8142;48.242;11.644;2022-11-20T10:49:05;2.20;;;1.80;;
16075;SDS011;8142;48.242;11.644;2022-11-20T11:00:04;1.90;;;1.67;;
16075;SDS011;8142;48.242;11.644;2022-11-20T11:02:34;2.93;;;1.70;;
16075;SDS011;8142;48.242;11.644;2022-11-20T11:08:04;2.03;;;1.70;;
16075;SDS011;8142;48.242;11.644;2022-11-20T11:10:48;4.03;;;1.73;;
16075;SDS011;8142;48.242;11.644;2022-11-20T11:13:28;1.70;;;1.60;;
16075;SDS011;8142;48.242;11.644;2022-11-20T11:15:54;2.30;;;1.80;;
16075;SDS011;8142;48.242;11.644;2022-11-20T11:18:27;2.20;;;1.50;;
16075;SDS011;8142;48.242;11.644;2022-11-20T11:20:56;2.33;;;1.40;;
16075;SDS011;8142;48.242;11.644;2022-11-20T11:26:02;1.93;;;1.60;;
16075;SDS011;8142;48.242;11.644;2022-11-20T11:28:42;1.50;;;1.40;;
16075;SDS011;8142;48.242;11.644;2022-11-20T11:31:29;2.10;;;1.50;;
16075;SDS011;8142;48.242;11.644;2022-11-20T11:34:06;1.50;;;1.40;;
16075;SDS011;8142;48.242;11.644;2022-11-20T11:36:36;2.03;;;1.37;;
16075;SDS011;8142;48.242;11.644;2022-11-20T11:39:02;1.50;;;1.23;;
16075;SDS011;8142;48.242;11.644;2022-11-20T11:41:31;2.67;;;1.60;;
16075;SDS011;8142;48.242;11.644;2022-11-20T11:44:12;2.40;;;1.67;;
16075;SDS011;8142;48.242;11.644;2022-11-20T11:58:17;3.00;;;1.70;;
16075;SDS011;8142;48.242;11.644;2022-11-20T12:00:58;2.43;;;1.60;;
16075;SDS011;8142;48.242;11.644;2022-11-20T12:03:52;1.87;;;1.53;;
16075;SDS011;8142;48.242;11.644;2022-11-20T12:06:26;1.57;;;1.47;;
16075;SDS011;8142;48.242;11.644;2022-11-20T12:09:02;3.37;;;1.47;;
16075;SDS011;8142;48.242;11.644;2022-11-20T12:17:03;5.90;;;1.50;;
16075;SDS011;8142;48.242;11.644;2022-11-20T12:19:30;2.30;;;1.30;;
16075;SDS011;8142;48.242;11.644;2022-11-20T12:22:02;1.60;;;1.50;;
16075;SDS011;8142;48.242;11.644;2022-11-20T12:30:07;1.43;;;1.20;;
16075;SDS011;8142;48.242;11.644;2022-11-20T12:38:29;1.30;;;1.20;;
16075;SDS011;8142;48.242;11.644;2022-11-20T12:43:30;1.53;;;1.43;;
16075;SDS011;8142;48.242;11.644;2022-11-20T12:49:34;1.67;;;1.57;;
16075;SDS011;8142;48.242;11.644;2022-11-20T12:52:23;1.33;;;1.30;;
16075;SDS011;8142;48.242;11.644;2022-11-20T12:55:08;2.73;;;1.40;;
16075;SDS011;8142;48.242;11.644;2022-11-20T12:57:45;1.40;;;1.30;;
16075;SDS011;8142;48.242;11.644;2022-11-20T13:00:22;1.73;;;1.63;;
16075;SDS011;8142;48.242;11.644;2022-11-20T13:08:22;1.63;;;1.10;;
16075;SDS011;8142;48.242;11.644;2022-11-20T13:19:11;1.70;;;1.47;;
16075;SDS011;8142;48.242;11.644;2022-11-20T13:21:40;1.37;;;1.27;;
16075;SDS011;8142;48.242;11.644;2022-11-20T13:29:39;1.93;;;1.73;;
16075;SDS011;8142;48.242;11.644;2022-11-20T13:32:15;1.97;;;1.63;;
16075;SDS011;8142;48.242;11.644;2022-11-20T13:34:56;2.73;;;1.63;;
16075;SDS011;8142;48.242;11.644;2022-11-20T13:37:30;2.13;;;1.63;;
16075;SDS011;8142;48.242;11.644;2022-11-20T13:42:45;5.20;;;1.57;;
16075;SDS011;8142;48.242;11.644;2022-11-20T13:45:30;3.07;;;1.80;;
16075;SDS011;8142;48.242;11.644;2022-11-20T13:47:58;1.90;;;1.70;;
16075;SDS011;8142;48.242;11.644;2022-11-20T13:50:55;2.07;;;1.87;;
16075;SDS011;8142;48.242;11.644;2022-11-20T13:58:54;1.90;;;1.70;;
16075;SDS011;8142;48.242;11.644;2022-11-20T14:01:31;2.80;;;1.77;;
16075;SDS011;8142;48.242;11.644;2022-11-20T14:03:58;1.97;;;1.60;;
16075;SDS011;8142;48.242;11.644;2022-11-20T14:08:53;2.33;;;1.80;;
16075;SDS011;8142;48.242;11.644;2022-11-20T14:11:21;3.93;;;1.67;;
16075;SDS011;8142;48.242;11.644;2022-11-20T14:14:03;1.97;;;1.80;;
16075;SDS011;8142;48.242;11.644;2022-11-20T14:16:41;2.20;;;2.00;;
16075;SDS011;8142;48.242;11.644;2022-11-20T14:19:30;1.77;;;1.67;;
16075;SDS011;8142;48.242;11.644;2022-11-20T14:24:44;2.70;;;1.90;;
16075;SDS011;8142;48.242;11.644;2022-11-20T14:27:12;4.33;;;2.07;;
16075;SDS011;8142;48.242;11.644;2022-11-20T14:29:39;2.53;;;1.87;;
16075;SDS011;8142;48.242;11.644;2022-11-20T14:32:08;1.70;;;1.60;;
16075;SDS011;8142;48.242;11.644;2022-11-20T14:34:39;2.07;;;1.83;;
16075;SDS011;8142;48.242;11.644;2022-11-20T14:37:10;2.87;;;1.93;;
16075;SDS011;8142;48.242;11.644;2022-11-20T14:39:40;2.87;;;2.37;;
16075;SDS011;8142;48.242;11.644;2022-11-20T14:42:15;1.97;;;1.83;;
16075;SDS011;8142;48.242;11.644;2022-11-20T14:44:42;2.63;;;2.17;;
16075;SDS011;8142;48.242;11.644;2022-11-20T14:47:10;2.60;;;2.20;;
16075;SDS011;8142;48.242;11.644;2022-11-20T14:49:40;2.60;;;2.40;;
16075;SDS011;8142;48.242;11.644;2022-11-20T14:52:17;2.67;;;2.10;;
16075;SDS011;8142;48.242;11.644;2022-11-20T14:54:51;2.73;;;2.10;;
16075;SDS011;8142;48.242;11.644;2022-11-20T14:57:31;3.63;;;2.13;;
16075;SDS011;8142;48.242;11.644;2022-11-20T15:02:33;3.13;;;2.10;;
16075;SDS011;8142;48.242;11.644;2022-11-20T15:05:00;2.90;;;2.30;;
16075;SDS011;8142;48.242;11.644;2022-11-20T15:07:29;2.93;;;2.23;;
16075;SDS011;8142;48.242;11.644;2022-11-20T15:12:49;2.63;;;2.00;;
16075;SDS011;8142;48.242;11.644;2022-11-20T15:18:15;2.00;;;1.80;;
16075;SDS011;8142;48.242;11.644;2022-11-20T15:20:49;3.60;;;1.97;;
16075;SDS011;8142;48.242;11.644;2022-11-20T15:23:16;2.20;;;2.00;;
16075;SDS011;8142;48.242;11.644;2022-11-20T15:25:44;3.10;;;2.00;;
16075;SDS011;8142;48.242;11.644;2022-11-20T15:28:16;1.70;;;1.57;;
16075;SDS011;8142;48.242;11.644;2022-11-20T15:30:47;2.80;;;1.80;;
16075;SDS011;8142;48.242;11.644;2022-11-20T15:33:15;2.43;;;1.73;;
16075;SDS011;8142;48.242;11.644;2022-11-20T15:35:41;2.40;;;2.20;;
16075;SDS011;8142;48.242;11.644;2022-11-20T15:38:08;1.77;;;1.67;;
16075;SDS011;8142;48.242;11.644;2022-11-20T15:40:34;1.67;;;1.40;;
16075;SDS011;8142;48.242;11.644;2022-11-20T15:43:00;2.27;;;1.60;;
16075;SDS011;8142;48.242;11.644;2022-11-20T15:45:39;1.90;;;1.57;;
16075;SDS011;8142;48.242;11.644;2022-11-20T15:48:15;1.63;;;1.30;;
16075;SDS011;8142;48.242;11.644;2022-11-20T15:50:48;1.57;;;1.33;;
16075;SDS011;8142;48.242;11.644;2022-11-20T15:53:27;1.73;;;1.37;;
16075;SDS011;8142;48.242;11.644;2022-11-20T15:55:53;1.87;;;1.37;;
16075;SDS011;8142;48.242;11.644;2022-11-20T15:58:19;1.40;;;1.30;;
16075;SDS011;8142;48.242;11.644;2022-11-20T16:00:45;1.50;;;1.40;;
16075;SDS011;8142;48.242;11.644;2022-11-20T16:03:12;1.60;;;1.50;;
16075;SDS011;8142;48.242;11.644;2022-11-20T16:05:39;1.67;;;1.30;;
16075;SDS011;8142;48.242;11.644;2022-11-20T16:08:05;2.10;;;1.33;;
16075;SDS011;8142;48.242;11.644;2022-11-20T16:10:31;2.33;;;1.27;;
16075;SDS011;8142;48.242;11.644;2022-11-20T16:12:57;2.27;;;1.43;;
16075;SDS011;8142;48.242;11.644;2022-11-20T16:15:41;2.63;;;1.60;;
16075;SDS011;8142;48.242;11.644;2022-11-20T16:18:20;3.00;;;1.40;;
16075;SDS011;8142;48.242;11.644;2022-11-20T16:20:48;2.50;;;1.50;;
16075;SDS011;8142;48.242;11.644;2022-11-20T16:23:16;1.30;;;1.20;;
16075;SDS011;8142;48.242;11.644;2022-11-20T16:25:43;1.20;;;1.17;;
16075;SDS011;8142;48.242;11.644;2022-11-20T16:28:10;1.10;;;1.10;;
16075;SDS011;8142;48.242;11.644;2022-11-20T16:30:36;1.58;;;1.40;;
16075;SDS011;8142;48.242;11.644;2022-11-20T16:33:02;2.33;;;1.10;;
16075;SDS011;8142;48.242;11.644;2022-11-20T16:35:30;1.23;;;1.10;;
16075;SDS011;8142;48.242;11.644;2022-11-20T16:37:56;1.10;;;1.00;;
16075;SDS011;8142;48.242;11.644;2022-11-20T16:40:23;1.73;;;1.10;;
16075;SDS011;8142;48.242;11.644;2022-11-20T16:42:50;1.10;;;1.03;;
16075;SDS011;8142;48.242;11.644;2022-11-20T16:45:17;1.73;;;1.10;;
16075;SDS011;8142;48.242;11.644;2022-11-20T16:47:43;1.53;;;1.10;;
16075;SDS011;8142;48.242;11.644;2022-11-20T16:50:09;2.73;;;1.07;;
16075;SDS011;8142;48.242;11.644;2022-11-20T16:52:35;1.30;;;1.20;;
16075;SDS011;8142;48.242;11.644;2022-11-20T16:55:01;1.77;;;1.40;;
16075;SDS011;8142;48.242;11.644;2022-11-20T16:57:28;1.17;;;1.10;;
16075;SDS011;8142;48.242;11.644;2022-11-20T16:59:55;2.30;;;1.20;;
16075;SDS011;8142;48.242;11.644;2022-11-20T17:02:21;2.37;;;1.40;;